createdAt,value
2022-11-24T00:01:17.994Z,9.632291315804832
2022-11-24T00:04:16.366Z,9.60017769710539
2022-11-24T00:07:16.257Z,9.607884964556433
2022-11-24T00:11:18.715Z,9.594397246946846
2022-11-24T00:14:17.058Z,9.552649562294027
2022-11-24T00:17:16.718Z,9.557145465871963
2022-11-24T00:21:18.233Z,9.549438202731926
2022-11-24T00:24:16.969Z,9.562925913656727
2022-11-24T00:27:17.027Z,9.562925913656727
2022-11-24T00:31:19.084Z,9.596324063625435
2022-11-24T00:34:16.650Z,9.587974524980472
2022-11-24T00:37:16.456Z,9.592470430309186
2022-11-24T00:41:16.153Z,9.590543613712452
2022-11-24T00:44:16.480Z,9.635502678300053
2022-11-24T00:47:16.441Z,9.668900854989715
2022-11-24T00:51:18.065Z,9.656697673619783
2022-11-24T00:54:16.598Z,9.66504721859028
2022-11-24T00:57:16.530Z,9.687526766561495
2022-11-24T01:01:19.124Z,9.70679495497061
2022-11-24T01:04:16.421Z,9.670827673250823
2022-11-24T01:07:16.502Z,9.669543127738871
2022-11-24T01:11:19.696Z,9.715144504552246
2022-11-24T01:14:17.934Z,9.689453585218235
2022-11-24T01:17:17.151Z,9.708721774036622
2022-11-24T01:21:16.744Z,9.740193157908289
2022-11-24T01:24:16.603Z,9.743404524223388
2022-11-24T01:27:16.091Z,9.72606314747245
2022-11-24T01:31:16.795Z,9.749184983877058
2022-11-24T01:34:16.662Z,9.763314997914495
2022-11-24T01:37:16.475Z,9.783867749534329
2022-11-24T01:41:19.353Z,9.783867749534329
2022-11-24T01:44:23.724Z,9.821119623714186
2022-11-24T01:47:33.173Z,9.82176189754109
2022-11-24T01:51:21.701Z,9.857729239105629
2022-11-24T01:54:21.629Z,9.887273851773443
2022-11-24T01:57:21.039Z,9.88534702891484
2022-11-24T02:01:16.683Z,9.921314395690569
2022-11-24T02:04:21.734Z,9.959850875918345
2022-11-24T02:07:18.125Z,9.997102822366651
2022-11-24T02:11:16.104Z,10.029858856883312
2022-11-24T02:14:18.680Z,10.024078379344427
2022-11-24T02:17:16.398Z,10.024720654608336
2022-11-24T02:21:17.149Z,10.034997059449324
2022-11-24T02:24:22.708Z,10.047200291710032
2022-11-24T02:27:17.615Z,10.06839538322247
2022-11-24T02:31:15.881Z,10.09215958262539
2022-11-24T02:34:16.203Z,10.118492891937876
2022-11-24T02:37:16.113Z,10.111427856981754
2022-11-24T02:41:20.843Z,10.119777443807198
2022-11-24T02:44:20.106Z,10.111427856981754
2022-11-24T02:47:17.191Z,10.164094494437814
2022-11-24T02:51:16.912Z,10.137761171887632
2022-11-24T02:54:17.272Z,10.165379046952875
2022-11-24T02:57:17.355Z,10.151891246451942
2022-11-24T03:01:16.839Z,10.167948152037571
2022-11-24T03:04:17.216Z,10.17372863874416
2022-11-24T03:07:17.271Z,10.193639206886292
2022-11-24T03:11:15.781Z,10.228322142473553
2022-11-24T03:14:16.076Z,10.238598570379327
2022-11-24T03:17:15.953Z,10.257224598925768
2022-11-24T03:21:15.861Z,10.251444106898635
2022-11-24T03:24:16.374Z,10.279062016574699
2022-11-24T03:27:16.204Z,10.313744984821914
2022-11-24T03:31:16.317Z,10.344574301062767
2022-11-24T03:34:16.460Z,10.3368669710203
2022-11-24T03:37:16.449Z,10.327875086798395
2022-11-24T03:41:16.257Z,10.358062130212783
2022-11-24T03:44:16.557Z,10.381826405499396
2022-11-24T03:47:16.847Z,10.382468683296247
2022-11-24T03:51:16.034Z,10.401737019316352
2022-11-24T03:54:16.417Z,10.43770459083753
2022-11-24T03:57:16.288Z,10.479452682807551
2022-11-24T04:01:16.746Z,10.467249392398298
2022-11-24T04:04:16.824Z,10.482021796787103
2022-11-24T04:07:16.872Z,10.480737239788231
2022-11-24T04:12:44.347Z,10.516062563885134
2022-11-24T04:14:18.603Z,10.55010334375702
2022-11-24T04:17:17.160Z,10.580932740324442
2022-11-24T04:21:16.092Z,10.601485677190158
2022-11-24T04:24:16.507Z,10.598916559827284
2022-11-24T04:27:16.587Z,10.598916559827284
2022-11-24T04:31:16.053Z,10.623965457218947
2022-11-24T04:34:16.245Z,10.624607736730194
2022-11-24T04:37:16.336Z,10.645802963152528
2022-11-24T04:41:16.340Z,10.66314451572698
2022-11-24T04:44:16.954Z,10.640022446364402
2022-11-24T04:47:19.237Z,10.625892295766334
2022-11-24T04:51:16.745Z,10.646445242818391
2022-11-24T04:54:17.163Z,10.640022446364402
2022-11-24T04:57:19.056Z,10.63231509121988
2022-11-24T05:01:16.575Z,10.654152599163444
2022-11-24T05:04:17.040Z,10.620754059730917
2022-11-24T05:07:19.045Z,10.593136046026848
2022-11-24T05:11:17.740Z,10.620111780246953
2022-11-24T05:14:16.947Z,10.627176854820664
2022-11-24T05:17:17.085Z,10.613046706223486
2022-11-24T05:21:15.851Z,10.582859577957787
2022-11-24T05:24:16.208Z,10.62525001624599
2022-11-24T05:27:16.256Z,10.595705163226011
2022-11-24T05:31:16.736Z,10.583501857177998
2022-11-24T05:34:18.501Z,10.55588385481533
2022-11-24T05:37:17.892Z,10.57515222766997
2022-11-24T05:41:16.096Z,10.627819134354649
2022-11-24T05:44:16.388Z,10.623965457218947
2022-11-24T05:47:17.754Z,10.60983530912199
2022-11-24T05:51:16.820Z,10.682412911364462
2022-11-24T05:54:17.222Z,10.691404830729244
2022-11-24T05:57:17.349Z,10.754990571673625
2022-11-24T06:01:16.037Z,10.839129347895597
2022-11-24T06:04:16.141Z,10.842340753114332
2022-11-24T06:07:16.433Z,10.877023936720798
2022-11-24T06:11:18.016Z,10.928406455327059
2022-11-24T06:14:16.186Z,10.970154773124614
2022-11-24T06:17:16.143Z,10.95859369858017
2022-11-24T06:21:17.391Z,10.941252089526097
2022-11-24T06:24:16.854Z,10.96437423566822
2022-11-24T06:27:17.703Z,10.941894371283798
2022-11-24T06:31:16.957Z,10.941252089526097
2022-11-24T06:34:17.420Z,11.02089506215998
2022-11-24T06:37:17.177Z,10.985569541475797
2022-11-24T06:41:16.362Z,10.953455443700022
2022-11-24T06:44:16.151Z,10.934186990491526
2022-11-24T06:47:16.301Z,10.931617863706288
2022-11-24T06:51:19.371Z,10.954740007392775
2022-11-24T06:54:18.750Z,10.946390343715029
2022-11-24T06:57:17.163Z,10.990707798174935
2022-11-24T07:01:19.082Z,11.004195723394878
2022-11-24T07:04:16.445Z,10.993276926633644
2022-11-24T07:07:16.419Z,11.019610497530447
2022-11-24T07:11:18.525Z,11.02410647381339
2022-11-24T07:14:17.000Z,11.038236686438996
2022-11-24T07:17:17.003Z,11.045944076071555
2022-11-24T07:21:17.558Z,11.089619296358524
2022-11-24T07:24:16.808Z,11.092188427618476
2022-11-24T07:27:16.791Z,11.09925353895851
2022-11-24T07:31:19.434Z,11.105676367926936
2022-11-24T07:34:16.721Z,11.128798555978573
2022-11-24T07:37:16.776Z,11.157701299330892
2022-11-24T07:41:18.443Z,11.186604051891845
2022-11-24T07:44:16.943Z,11.23670217814506
2022-11-24T07:47:16.897Z,11.235417610459626
2022-11-24T07:51:16.637Z,11.298361448437209
2022-11-24T07:54:17.038Z,11.320199116715594
2022-11-24T07:57:17.053Z,11.328548814799523
2022-11-24T08:01:17.691Z,11.352955628989822
2022-11-24T08:04:17.257Z,11.395988712110556
2022-11-24T08:07:17.286Z,11.443517812714344
2022-11-24T08:11:17.634Z,11.525088083954415
2022-11-24T08:14:16.717Z,11.577755542147589
2022-11-24T08:17:17.128Z,11.618219585676343
2022-11-24T08:21:17.113Z,11.69914772688062
2022-11-24T08:24:17.202Z,11.741538686800414
2022-11-24T08:27:18.325Z,11.796133134062348
2022-11-24T08:31:17.643Z,11.871280838736856
2022-11-24T08:34:16.357Z,11.920094765722752
2022-11-24T08:37:17.081Z,11.981112211391974
2022-11-24T08:41:16.723Z,12.02157643483697
2022-11-24T08:44:18.502Z,12.071675022204
2022-11-24T08:47:17.033Z,12.154530438949678
2022-11-24T08:51:19.328Z,12.242524258973209
2022-11-24T08:54:18.873Z,12.279134851571234
2022-11-24T08:57:21.651Z,12.350429205873297
2022-11-24T09:01:16.979Z,12.45255364883642
2022-11-24T09:04:16.301Z,12.51999438174571
2022-11-24T09:07:16.261Z,12.571377830946949
2022-11-24T09:11:18.078Z,12.669006464610357
2022-11-24T09:14:17.132Z,12.7846194561429
2022-11-24T09:17:17.103Z,12.886102092359215
2022-11-24T09:21:18.726Z,13.002999953256586
2022-11-24T09:24:16.956Z,13.098702160305493
2022-11-24T09:27:16.509Z,13.191835277517384
2022-11-24T09:31:17.411Z,13.246430597575909
2022-11-24T09:34:17.268Z,13.337636970259428
2022-11-24T09:37:16.774Z,13.382597891944261
2022-11-24T09:42:12.058Z,13.477015900012338
2022-11-24T09:44:39.787Z,13.535465192346692
2022-11-24T09:47:27.327Z,13.599695227351276
2022-11-24T09:51:20.110Z,13.68961735275525
2022-11-24T09:54:22.149Z,13.764124324182285
2022-11-24T09:57:19.106Z,13.825785312328026
2022-11-24T10:01:19.231Z,13.891300158153262
2022-11-24T10:04:20.105Z,13.970303417515243
2022-11-24T10:07:24.025Z,14.03902988608761
2022-11-24T10:11:25.732Z,14.07949502744923
2022-11-24T10:14:31.474Z,14.20345977919942
2022-11-24T10:17:28.267Z,14.263836455382352
2022-11-24T10:21:31.973Z,14.351832321350594
2022-11-24T10:24:32.780Z,14.4045014206451
2022-11-24T10:27:21.196Z,14.469374377655276
2022-11-24T10:31:23.772Z,14.659497370341796
2022-11-24T10:34:20.275Z,14.801447567239302
2022-11-24T10:37:22.481Z,14.996709739434664
2022-11-24T10:41:20.382Z,15.258130476623865
2022-11-24T10:44:16.631Z,15.464955279090736
2022-11-24T10:47:19.553Z,15.69297695870373
2022-11-24T10:51:38.030Z,15.802812958185768
2022-11-24T10:54:20.682Z,15.899160435632893
2022-11-24T10:57:27.303Z,15.998719603152495
2022-11-24T11:01:20.769Z,16.116906111583013
2022-11-24T11:04:20.359Z,16.262712505312173
2022-11-24T11:07:20.769Z,16.39117648251058
2022-11-24T11:11:22.160Z,16.540194923943726
2022-11-24T11:14:30.479Z,16.651958915644446
2022-11-24T11:17:49.731Z,16.81125495786773
2022-11-24T11:21:28.151Z,17.107366489201375
2022-11-24T11:24:17.519Z,17.23197770454317
2022-11-24T11:27:18.214Z,17.418894848459693
2022-11-24T11:31:21.308Z,17.639213488489624
2022-11-24T11:34:26.683Z,17.82741613239641
2022-11-24T11:37:18.728Z,18.07985237356661
2022-11-24T11:41:20.886Z,18.191618261918485
2022-11-24T11:44:28.998Z,18.299530284760113
2022-11-24T11:47:22.664Z,18.31944263633495
2022-11-24T11:51:34.314Z,18.31880030234497
2022-11-24T11:54:28.514Z,18.44855186063942
2022-11-24T11:57:24.065Z,18.515997050868556
2022-11-24T12:01:34.404Z,18.64189487343765
2022-11-24T12:04:32.699Z,18.77678559147762
2022-11-24T12:07:36.834Z,18.902683775916465
2022-11-24T12:11:23.335Z,19.065837805434512
2022-11-24T12:14:27.487Z,19.122363679367208
2022-11-24T12:17:27.975Z,19.26367851826735
2022-11-24T12:21:24.662Z,19.39921250235202
2022-11-24T12:24:22.351Z,19.478220558047997
2022-11-24T12:27:27.296Z,19.507125961467683
2022-11-24T12:31:26.888Z,19.57392959571589
2022-11-24T12:34:28.618Z,19.601550343479268
2022-11-24T12:37:32.167Z,19.752501090264197
2022-11-24T12:41:41.144Z,19.81673552676839
2022-11-24T12:44:34.629Z,19.787187680328497
2022-11-24T12:47:20.983Z,19.730019048231135
2022-11-24T12:51:18.971Z,19.87647359352859
2022-11-24T12:54:20.103Z,19.90345208818335
2022-11-24T12:57:22.917Z,19.93621169961989
2022-11-24T13:01:30.850Z,20.02999418207073
2022-11-24T13:04:28.956Z,20.024213067335314
2022-11-24T13:07:26.313Z,20.04412579741911
2022-11-24T13:11:43.522Z,20.099367587626695
2022-11-24T13:14:20.652Z,20.125703801774307
2022-11-24T13:17:36.028Z,20.06853495638679
2022-11-24T13:21:44.903Z,20.10000993422227
2022-11-24T13:24:26.780Z,20.074316073946193
2022-11-24T13:27:37.873Z,20.02935183597083
2022-11-24T13:31:22.090Z,19.995949845042286
2022-11-24T13:34:53.818Z,19.905379123822787
2022-11-24T13:37:28.852Z,19.873904213503646
2022-11-24T13:42:00.553Z,19.826370696166215
2022-11-24T13:44:22.561Z,19.848852762073513
2022-11-24T13:51:22.618Z,19.665784673117834
2022-11-24T13:54:17.147Z,19.700471230031052
2022-11-24T13:57:33.403Z,19.685054980876977
2022-11-24T14:01:19.718Z,19.677989200890078
2022-11-24T14:04:30.501Z,19.622105324015955
2022-11-24T14:07:17.204Z,19.597696285147048
2022-11-24T14:11:17.268Z,19.512907043256654
2022-11-24T14:14:20.981Z,19.474366504954467
2022-11-24T14:17:20.055Z,19.47308182062634
2022-11-24T14:21:27.451Z,19.38315396285916
2022-11-24T14:24:24.143Z,19.308000035808437
2022-11-24T14:27:19.433Z,19.290656830713942
2022-11-24T14:31:22.405Z,19.27716767348793
2022-11-24T14:34:18.711Z,19.13906451249577
2022-11-24T14:37:16.803Z,19.03885955983578
2022-11-24T14:41:22.465Z,18.937370041100166
2022-11-24T14:44:20.292Z,18.90139909968284
2022-11-24T14:47:28.811Z,18.833311285330364
2022-11-24T14:51:20.893Z,18.778070265946827
2022-11-24T14:54:19.342Z,18.624551795667866
2022-11-24T14:57:24.291Z,18.548756161355413
2022-11-24T15:01:22.135Z,18.346420668020528
2022-11-24T15:04:46.323Z,18.167851940800848
2022-11-24T15:07:23.824Z,18.11518065672726
2022-11-24T15:11:16.185Z,17.925692753482508
2022-11-24T15:14:44.355Z,17.870452286698857
2022-11-24T15:17:19.968Z,17.71757768186253
2022-11-24T15:21:29.902Z,17.549287448347606
2022-11-24T15:24:18.372Z,17.420179503702183
2022-11-24T15:27:17.079Z,17.305845258352292
2022-11-24T15:31:16.210Z,17.138840439808064
2022-11-24T15:34:16.349Z,17.014871677140764
2022-11-24T15:37:16.343Z,16.89668399895454
2022-11-24T15:41:19.550Z,16.807401018060865
2022-11-24T15:44:16.320Z,16.65452820442888
2022-11-24T15:47:16.801Z,16.44320444502846
2022-11-24T15:51:16.604Z,16.295470802219644
2022-11-24T15:54:18.288Z,16.198480584925072
2022-11-24T15:57:17.069Z,16.019916085182285
2022-11-24T16:11:16.969Z,15.595987385504213
2022-11-24T16:14:17.291Z,15.465597592876293
2022-11-24T16:17:17.076Z,15.380169899315025
2022-11-24T16:21:16.225Z,15.300523099582005
2022-11-24T16:24:16.410Z,15.317223229216415
2022-11-24T16:27:16.370Z,15.10718720722689
2022-11-24T16:31:16.780Z,14.940828745913404
2022-11-24T16:34:16.671Z,14.839986120569302
2022-11-24T16:37:16.715Z,14.7295089781579
2022-11-24T16:41:16.731Z,14.574070435822069
2022-11-24T16:44:16.981Z,14.44817825788632
2022-11-24T16:47:17.242Z,14.326140088888133
2022-11-24T16:51:16.822Z,14.231078892041477
2022-11-24T16:54:16.220Z,14.170059933041284
2022-11-24T16:57:16.141Z,14.142440838775656
2022-11-24T17:01:16.126Z,14.036460671372424
2022-11-24T17:04:16.527Z,13.863038846308427
2022-11-24T17:07:16.479Z,13.748709083694212
2022-11-24T17:11:18.382Z,13.68383664201283
2022-11-24T17:14:16.578Z,13.563726402146221
2022-11-24T17:17:16.611Z,13.463527607129162
2022-11-24T17:21:17.754Z,13.336352372824422
2022-11-24T17:24:17.829Z,13.227161657333
2022-11-24T17:27:16.348Z,13.11732877609902
2022-11-24T17:31:20.931Z,13.11732877609902
2022-11-24T17:34:16.961Z,13.033830183430473
2022-11-24T17:37:16.809Z,13.051172192507602
2022-11-24T17:41:16.905Z,12.954827739585108
2022-11-24T17:44:16.438Z,12.84756436903408
2022-11-24T17:47:16.440Z,12.868760114837006
2022-11-24T17:51:17.708Z,12.753789310661158
2022-11-24T17:57:16.521Z,12.73002441400322
2022-11-24T18:01:16.385Z,12.627257364988418
2022-11-24T18:04:16.487Z,12.556605086320724
2022-11-24T18:07:16.494Z,12.571377830946949
2022-11-24T18:11:18.467Z,12.47374930234837
2022-11-24T18:14:17.173Z,12.455765111171422
2022-11-24T18:17:17.044Z,12.373551711193068
2022-11-24T18:21:16.904Z,12.316387750433297
2022-11-24T18:24:21.095Z,12.238028222304365
2022-11-24T18:27:17.208Z,12.156457310006953
2022-11-24T18:31:18.606Z,12.139115471964852
2022-11-24T18:34:17.366Z,12.071675022204
2022-11-24T18:37:17.330Z,12.011299804950614
2022-11-24T18:41:17.053Z,11.94514402792638
2022-11-24T18:44:17.006Z,11.8674271087777
2022-11-24T18:47:16.999Z,11.826962954090504
2022-11-24T18:51:16.456Z,11.746034698862877
2022-11-24T18:54:16.745Z,11.695294004233801
2022-11-24T18:57:16.713Z,11.613723579948509
2022-11-24T19:01:20.343Z,11.634919037473447
2022-11-24T19:04:17.039Z,11.512884652882713
2022-11-24T19:07:17.488Z,11.477558940613472
2022-11-24T19:11:18.070Z,11.437737245094558
2022-11-24T19:14:17.658Z,11.383143013519293
2022-11-24T19:17:16.808Z,11.340752221073853
2022-11-24T19:21:16.823Z,11.288084900478134
2022-11-24T19:24:16.877Z,11.259824399593345
2022-11-24T19:27:17.087Z,11.09026157916669
2022-11-24T19:31:17.423Z,11.132009971451861
2022-11-24T19:34:16.912Z,11.044017228602025
2022-11-24T19:37:16.614Z,10.971439337053834
2022-11-24T19:41:23.314Z,10.984927259408868
2022-11-24T19:44:17.197Z,10.984927259408868
2022-11-24T19:47:16.987Z,10.861609186814167
2022-11-24T19:51:18.321Z,10.80444617877738
2022-11-24T19:54:17.405Z,10.751779169547172
2022-11-24T19:57:16.527Z,10.650941200606757
2022-11-24T20:01:19.582Z,10.613688985657427
2022-11-24T20:04:17.291Z,10.616900382895347
2022-11-24T20:07:17.043Z,10.571940831909979
2022-11-24T20:11:18.390Z,10.512851170216981
2022-11-24T20:14:17.242Z,10.38632235017285
2022-11-24T20:17:16.302Z,10.352923909347737
2022-11-24T20:21:19.279Z,10.277135185394219
2022-11-24T20:24:19.275Z,10.198135142232877
2022-11-24T20:27:17.232Z,10.175013191395646
2022-11-24T20:31:18.997Z,10.09858234028943
2022-11-24T20:34:17.688Z,10.041419813066113
2022-11-24T20:37:16.682Z,10.002883298186589
2022-11-24T20:41:18.696Z,10.049127118006528
2022-11-24T20:44:19.035Z,9.925810317540254
2022-11-24T20:47:16.788Z,9.907184357042206
2022-11-24T20:51:18.524Z,9.823688719049096
2022-11-24T20:54:17.610Z,9.758176810737131
2022-11-24T20:57:16.939Z,9.718998143079897
2022-11-24T21:01:18.407Z,9.717071323795608
2022-11-24T21:04:19.284Z,9.634860405791915
2022-11-24T21:07:16.886Z,9.582194075599546
2022-11-24T21:11:18.740Z,9.579624987104035
2022-11-24T21:14:17.153Z,9.548795930833148
2022-11-24T21:17:17.130Z,9.53595049381256
2022-11-24T21:21:17.399Z,9.56356818565555
2022-11-24T21:24:18.267Z,9.513470983403476
2022-11-24T21:27:16.540Z,9.472365607347546
2022-11-24T21:31:19.494Z,9.492918293047206
2022-11-24T21:34:17.362Z,9.431902520984659
2022-11-24T21:37:16.790Z,9.391439452670692
2022-11-24T21:41:15.844Z,9.406211681868081
2022-11-24T21:44:16.339Z,9.34712277951221
2022-11-24T21:47:16.206Z,9.294456616375829
2022-11-24T21:51:18.092Z,9.198116153179217
2022-11-24T21:54:16.981Z,9.189766651186892
2022-11-24T21:57:17.266Z,9.1557263817871
2022-11-24T22:01:19.772Z,9.130677889820891
2022-11-24T22:04:17.468Z,9.105629404771388
2022-11-24T22:07:17.410Z,9.040760283332293
2022-11-24T22:11:19.137Z,9.056816992239693
2022-11-24T22:14:17.414Z,8.907168575417108
2022-11-24T22:17:17.449Z,8.920013923398164
2022-11-24T22:21:18.604Z,8.955338639725232
2022-11-24T22:24:17.086Z,8.935428343376497
2022-11-24T22:27:17.154Z,8.912306714391253
2022-11-24T22:31:18.253Z,8.907168575417108
2022-11-24T22:34:16.680Z,8.860283070722653
2022-11-24T22:37:16.602Z,8.881477884911964
2022-11-24T22:41:17.425Z,8.810186256870292
2022-11-24T22:44:17.031Z,8.778715195650966
2022-11-24T22:47:16.911Z,8.715773105967765
2022-11-24T22:51:18.423Z,8.727333894676212
2022-11-24T22:54:17.644Z,8.620075522680782
2022-11-24T22:57:17.334Z,8.613010604426472
2022-11-24T23:01:19.281Z,8.55006862972159
2022-11-24T23:04:17.561Z,8.524378040352257
2022-11-24T23:07:17.656Z,8.49033802064514
2022-11-24T23:11:18.336Z,8.50189878062265
2022-11-24T23:14:16.642Z,8.483273112495317
2022-11-24T23:17:16.546Z,8.461436127147408
2022-11-24T23:21:18.814Z,8.445379523627707
2022-11-24T23:24:17.430Z,8.438956883015635
2022-11-24T23:27:17.316Z,8.363812021639841
2022-11-24T23:31:19.717Z,8.422900283474974
2022-11-24T23:34:17.378Z,8.368950129836685
2022-11-24T23:37:17.524Z,8.369592393381755
2022-11-24T23:41:18.300Z,8.374088238324566
2022-11-24T23:44:16.737Z,8.404916895363659
2022-11-24T23:47:16.790Z,8.390144829225028
2022-11-24T23:51:17.773Z,8.42354254740203
2022-11-24T23:54:16.862Z,8.402347840210222
2022-11-24T23:57:16.918Z,8.431891978867588
